createdAt,value
2023-02-24T00:02:00.045Z,7.78
2023-02-24T00:04:21.839Z,7.72
2023-02-24T00:06:43.880Z,7.67
2023-02-24T00:09:11.420Z,7.58
2023-02-24T00:11:33.259Z,7.58
2023-02-24T00:13:57.754Z,7.64
2023-02-24T00:16:19.785Z,7.55
2023-02-24T00:18:41.393Z,7.49
2023-02-24T00:21:12.730Z,7.40
2023-02-24T00:23:38.380Z,7.34
2023-02-24T00:26:00.419Z,7.35
2023-02-24T00:28:21.913Z,7.40
2023-02-24T00:30:44.224Z,7.43
2023-02-24T00:33:06.736Z,7.35
2023-02-24T00:35:29.317Z,7.40
2023-02-24T00:37:51.426Z,7.36
2023-02-24T00:40:13.167Z,7.35
2023-02-24T00:42:34.632Z,7.41
2023-02-24T00:44:56.120Z,7.36
2023-02-24T00:47:17.772Z,7.37
2023-02-24T00:49:42.471Z,7.24
2023-02-24T00:52:08.601Z,7.31
2023-02-24T00:54:30.398Z,7.32
2023-02-24T00:56:51.823Z,7.41
2023-02-24T00:59:15.926Z,7.30
2023-02-24T01:01:38.069Z,7.27
2023-02-24T01:04:06.107Z,7.41
2023-02-24T01:06:29.337Z,7.54
2023-02-24T01:08:52.748Z,7.54
2023-02-24T01:11:34.448Z,7.41
2023-02-24T01:13:55.917Z,7.53
2023-02-24T01:16:20.017Z,7.67
2023-02-24T01:18:42.087Z,7.74
2023-02-24T01:21:04.105Z,7.72
2023-02-24T01:23:26.130Z,7.75
2023-02-24T01:25:47.805Z,7.73
2023-02-24T01:28:11.150Z,7.73
2023-02-24T01:30:32.660Z,7.82
2023-02-24T01:32:54.297Z,7.95
2023-02-24T01:35:16.230Z,7.86
2023-02-24T01:37:39.082Z,7.97
2023-02-24T01:40:10.502Z,8.06
2023-02-24T01:42:32.878Z,7.97
2023-02-24T01:44:54.291Z,7.99
2023-02-24T01:47:20.918Z,7.95
2023-02-24T01:49:44.954Z,8.00
2023-02-24T01:52:15.347Z,7.88
2023-02-24T01:54:43.130Z,7.73
2023-02-24T01:57:05.992Z,7.69
2023-02-24T01:59:30.198Z,7.73
2023-02-24T02:01:55.302Z,7.76
2023-02-24T02:04:42.829Z,7.87
2023-02-24T02:07:05.575Z,7.86
2023-02-24T02:09:28.013Z,7.89
2023-02-24T02:11:49.942Z,7.94
2023-02-24T02:14:11.446Z,7.94
2023-02-24T02:16:41.983Z,7.90
2023-02-24T02:19:22.814Z,7.98
2023-02-24T02:22:07.080Z,8.02
2023-02-24T02:24:37.306Z,8.00
2023-02-24T02:27:29.386Z,8.12
2023-02-24T02:30:03.687Z,8.24
2023-02-24T02:33:01.744Z,8.47
2023-02-24T02:35:37.088Z,8.60
2023-02-24T02:38:04.553Z,8.67
2023-02-24T02:41:07.314Z,8.79
2023-02-24T02:43:39.226Z,8.75
2023-02-24T02:46:10.708Z,8.84
2023-02-24T02:48:41.207Z,8.77
2023-02-24T02:51:13.248Z,8.89
2023-02-24T02:53:43.262Z,8.96
2023-02-24T02:56:17.971Z,8.99
2023-02-24T02:58:46.137Z,9.02
2023-02-24T03:01:10.816Z,9.07
2023-02-24T03:03:36.766Z,9.12
2023-02-24T03:06:27.608Z,8.98
2023-02-24T03:08:58.883Z,8.82
2023-02-24T03:11:21.112Z,8.71
2023-02-24T03:13:49.609Z,8.85
2023-02-24T03:16:13.237Z,8.60
2023-02-24T03:18:44.781Z,8.60
2023-02-24T03:21:11.865Z,8.53
2023-02-24T03:23:37.913Z,8.58
2023-02-24T03:26:07.958Z,8.59
2023-02-24T03:28:35.846Z,8.46
2023-02-24T03:31:03.779Z,8.25
2023-02-24T03:33:36.930Z,8.16
2023-02-24T03:36:01.822Z,7.99
2023-02-24T03:38:24.450Z,8.04
2023-02-24T03:40:46.194Z,8.30
2023-02-24T03:43:16.934Z,8.34
2023-02-24T03:45:40.927Z,8.32
2023-02-24T03:48:03.957Z,8.20
2023-02-24T03:50:31.663Z,8.18
2023-02-24T03:53:17.909Z,8.28
2023-02-24T03:55:47.534Z,8.45
2023-02-24T03:58:14.661Z,8.55
2023-02-24T04:00:42.182Z,8.66
2023-02-24T04:03:25.713Z,8.73
2023-02-24T04:06:05.904Z,8.78
2023-02-24T04:08:30.154Z,8.87
2023-02-24T04:10:57.447Z,8.84
2023-02-24T04:13:35.338Z,8.88
2023-02-24T04:16:06.045Z,8.78
2023-02-24T04:18:31.428Z,8.49
2023-02-24T04:20:54.780Z,8.25
2023-02-24T04:23:19.456Z,8.29
2023-02-24T04:25:44.571Z,8.15
2023-02-24T04:28:08.123Z,8.04
2023-02-24T04:30:34.413Z,8.11
2023-02-24T04:32:56.665Z,8.28
2023-02-24T04:35:21.199Z,8.32
2023-02-24T04:37:45.835Z,8.41
2023-02-24T04:40:12.270Z,8.48
2023-02-24T04:42:33.708Z,8.56
2023-02-24T04:44:58.567Z,8.64
2023-02-24T04:47:20.949Z,8.66
2023-02-24T04:49:42.735Z,8.70
2023-02-24T04:52:04.167Z,8.68
2023-02-24T04:54:25.699Z,8.59
2023-02-24T04:56:50.890Z,8.57
2023-02-24T04:59:12.620Z,8.62
2023-02-24T05:01:34.070Z,8.67
2023-02-24T05:03:55.663Z,8.69
2023-02-24T05:06:17.905Z,8.72
2023-02-24T05:08:39.505Z,8.78
2023-02-24T05:11:03.996Z,8.79
2023-02-24T05:13:28.691Z,8.79
2023-02-24T05:15:50.206Z,8.79
2023-02-24T05:18:14.886Z,8.80
2023-02-24T05:20:56.189Z,8.78
2023-02-24T05:23:17.750Z,8.58
2023-02-24T05:25:42.526Z,8.33
2023-02-24T05:28:07.378Z,8.35
2023-02-24T05:30:28.837Z,8.51
2023-02-24T05:32:50.378Z,8.45
2023-02-24T05:35:12.062Z,8.50
2023-02-24T05:37:37.862Z,8.21
2023-02-24T05:40:00.258Z,8.31
2023-02-24T05:42:21.797Z,8.37
2023-02-24T05:44:43.266Z,8.33
2023-02-24T05:47:05.740Z,8.35
2023-02-24T05:49:33.009Z,8.34
2023-02-24T05:51:57.179Z,8.19
2023-02-24T05:54:18.674Z,8.08
2023-02-24T05:56:44.686Z,7.89
2023-02-24T05:59:11.304Z,7.79
2023-02-24T06:01:34.904Z,7.73
2023-02-24T06:04:05.630Z,7.62
2023-02-24T06:06:28.787Z,7.64
2023-02-24T06:08:50.362Z,7.59
2023-02-24T06:11:12.117Z,7.43
2023-02-24T06:13:33.544Z,7.33
2023-02-24T06:15:55.696Z,7.27
2023-02-24T06:18:17.531Z,7.16
2023-02-24T06:20:39.255Z,6.98
2023-02-24T06:23:02.049Z,6.99
2023-02-24T06:25:25.700Z,6.86
2023-02-24T06:27:53.168Z,6.83
2023-02-24T06:30:15.192Z,6.76
2023-02-24T06:32:36.997Z,6.76
2023-02-24T06:34:59.366Z,6.65
2023-02-24T06:37:22.834Z,6.67
2023-02-24T06:39:44.523Z,6.73
2023-02-24T06:42:08.889Z,6.75
2023-02-24T06:44:35.564Z,6.64
2023-02-24T06:46:58.023Z,6.56
2023-02-24T06:49:19.736Z,6.70
2023-02-24T06:51:43.447Z,6.72
2023-02-24T06:54:06.175Z,6.60
2023-02-24T06:56:27.763Z,6.66
2023-02-24T06:58:55.446Z,6.59
2023-02-24T07:01:25.658Z,6.63
2023-02-24T07:04:03.074Z,6.63
2023-02-24T07:06:24.587Z,6.67
2023-02-24T07:08:47.984Z,6.67
2023-02-24T07:11:09.477Z,6.58
2023-02-24T07:13:30.934Z,6.64
2023-02-24T07:15:52.385Z,6.61
2023-02-24T07:18:15.036Z,6.64
2023-02-24T07:20:43.641Z,6.65
2023-02-24T07:23:06.747Z,6.56
2023-02-24T07:25:34.244Z,6.42
2023-02-24T07:27:56.302Z,6.32
2023-02-24T07:30:18.129Z,6.21
2023-02-24T07:32:40.564Z,6.16
2023-02-24T07:35:02.045Z,6.16
2023-02-24T07:37:24.386Z,6.09
2023-02-24T07:39:46.120Z,5.97
2023-02-24T07:42:10.359Z,5.73
2023-02-24T07:44:33.113Z,5.73
2023-02-24T07:46:55.102Z,5.67
2023-02-24T07:49:23.395Z,5.79
2023-02-24T07:51:45.113Z,5.92
2023-02-24T07:54:08.819Z,6.02
2023-02-24T07:56:32.875Z,6.06
2023-02-24T07:58:59.423Z,6.33
2023-02-24T08:01:23.857Z,6.69
2023-02-24T08:03:45.289Z,6.79
2023-02-24T08:06:26.623Z,6.94
2023-02-24T08:09:00.663Z,7.20
2023-02-24T08:11:24.989Z,7.23
2023-02-24T08:13:46.439Z,7.36
2023-02-24T08:16:08.038Z,7.44
2023-02-24T08:18:29.663Z,7.76
2023-02-24T08:20:54.074Z,7.97
2023-02-24T08:23:15.502Z,8.03
2023-02-24T08:25:36.964Z,7.87
2023-02-24T08:28:07.368Z,7.84
2023-02-24T08:30:30.295Z,7.50
2023-02-24T08:32:56.849Z,7.07
2023-02-24T08:35:20.523Z,6.85
2023-02-24T08:37:47.132Z,6.52
2023-02-24T08:40:30.817Z,6.38
2023-02-24T08:42:52.305Z,6.60
2023-02-24T08:45:15.131Z,6.61
2023-02-24T08:47:36.542Z,6.68
2023-02-24T08:50:01.980Z,6.78
2023-02-24T08:52:23.413Z,6.87
2023-02-24T08:54:49.213Z,6.99
2023-02-24T08:57:15.162Z,7.05
2023-02-24T08:59:49.686Z,7.22
2023-02-24T09:02:24.411Z,7.51
2023-02-24T09:04:48.496Z,7.52
2023-02-24T09:07:15.475Z,7.57
2023-02-24T09:09:42.125Z,7.87
2023-02-24T09:12:03.696Z,7.86
2023-02-24T09:14:36.394Z,7.83
2023-02-24T09:17:02.541Z,7.96
2023-02-24T09:19:40.516Z,7.60
2023-02-24T09:22:21.652Z,7.59
2023-02-24T09:24:43.639Z,7.48
2023-02-24T09:27:06.003Z,7.34
2023-02-24T09:29:34.119Z,7.28
2023-02-24T09:32:04.544Z,7.26
2023-02-24T09:34:30.139Z,7.30
2023-02-24T09:37:03.061Z,7.27
2023-02-24T09:39:27.850Z,7.28
2023-02-24T09:42:24.254Z,7.28
2023-02-24T09:44:52.685Z,7.41
2023-02-24T09:47:36.995Z,7.68
2023-02-24T09:50:04.375Z,7.94
2023-02-24T09:53:06.374Z,7.87
2023-02-24T09:55:46.166Z,7.79
2023-02-24T09:58:19.744Z,7.87
2023-02-24T10:00:57.149Z,7.98
2023-02-24T10:03:42.373Z,8.07
2023-02-24T10:06:23.452Z,8.05
2023-02-24T10:08:50.479Z,8.27
2023-02-24T10:11:14.694Z,8.38
2023-02-24T10:13:53.085Z,8.51
2023-02-24T10:16:23.948Z,8.54
2023-02-24T10:19:11.785Z,8.35
2023-02-24T10:21:49.610Z,8.37
2023-02-24T10:24:41.318Z,8.30
2023-02-24T10:27:18.399Z,8.51
2023-02-24T10:30:11.319Z,8.43
2023-02-24T10:32:58.824Z,8.61
2023-02-24T10:35:26.046Z,8.66
2023-02-24T10:37:49.274Z,8.85
2023-02-24T10:40:13.062Z,8.56
2023-02-24T10:42:34.522Z,8.45
2023-02-24T10:45:17.296Z,8.48
2023-02-24T10:47:44.456Z,8.72
2023-02-24T10:50:12.708Z,8.68
2023-02-24T10:52:56.544Z,8.79
2023-02-24T10:55:44.688Z,8.85
2023-02-24T10:58:07.553Z,8.78
2023-02-24T11:00:47.710Z,9.02
2023-02-24T11:03:22.020Z,9.23
2023-02-24T11:06:04.809Z,9.31
2023-02-24T11:08:36.766Z,9.46
2023-02-24T11:11:07.239Z,9.47
2023-02-24T11:13:47.167Z,9.60
2023-02-24T11:16:29.574Z,9.52
2023-02-24T11:18:52.651Z,9.44
2023-02-24T11:21:14.483Z,9.59
2023-02-24T11:23:40.136Z,9.51
2023-02-24T11:26:11.493Z,9.28
2023-02-24T11:28:46.855Z,9.47
2023-02-24T11:31:25.503Z,9.24
2023-02-24T11:33:55.073Z,8.98
2023-02-24T11:36:41.617Z,8.90
2023-02-24T11:39:21.219Z,8.96
2023-02-24T11:41:47.496Z,8.76
2023-02-24T11:44:34.803Z,8.91
2023-02-24T11:47:07.299Z,8.87
2023-02-24T11:49:48.962Z,8.71
2023-02-24T11:52:16.038Z,8.47
2023-02-24T11:54:41.713Z,8.37
2023-02-24T11:57:05.265Z,8.25
2023-02-24T11:59:40.468Z,8.27
2023-02-24T12:02:18.372Z,8.46
2023-02-24T12:04:50.961Z,8.54
2023-02-24T12:07:28.537Z,8.38
2023-02-24T12:10:10.652Z,8.57
2023-02-24T12:12:44.582Z,8.67
2023-02-24T12:15:26.643Z,8.68
2023-02-24T12:18:01.925Z,8.75
2023-02-24T12:20:34.266Z,8.84
2023-02-24T12:23:00.927Z,8.86
2023-02-24T12:25:29.273Z,8.68
2023-02-24T12:28:11.253Z,8.62
2023-02-24T12:31:03.259Z,8.49
2023-02-24T12:33:50.415Z,8.27
2023-02-24T12:36:30.759Z,8.21
2023-02-24T12:39:01.239Z,7.95
2023-02-24T12:41:37.053Z,7.83
2023-02-24T12:44:05.607Z,7.82
2023-02-24T12:46:38.380Z,7.95
2023-02-24T12:49:30.821Z,7.98
2023-02-24T12:52:10.174Z,7.97
2023-02-24T12:55:07.418Z,8.37
2023-02-24T12:57:48.809Z,8.63
2023-02-24T13:00:37.656Z,8.41
2023-02-24T13:03:23.782Z,8.36
2023-02-24T13:05:51.360Z,8.49
2023-02-24T13:08:12.792Z,8.49
2023-02-24T13:10:50.801Z,8.67
2023-02-24T13:13:33.548Z,8.63
2023-02-24T13:15:57.305Z,8.35
2023-02-24T13:18:29.928Z,8.28
2023-02-24T13:21:06.395Z,8.21
2023-02-24T13:23:27.912Z,8.01
2023-02-24T13:25:55.490Z,7.89
2023-02-24T13:28:38.392Z,7.85
2023-02-24T13:31:12.436Z,7.81
2023-02-24T13:33:35.986Z,7.82
2023-02-24T13:36:31.772Z,7.74
2023-02-24T13:39:20.511Z,7.54
2023-02-24T13:41:42.004Z,7.58
2023-02-24T13:44:25.301Z,7.60
2023-02-24T13:46:59.149Z,7.39
2023-02-24T13:49:33.098Z,7.43
2023-02-24T13:52:04.148Z,7.28
2023-02-24T13:54:41.820Z,7.08
2023-02-24T13:57:25.176Z,6.94
2023-02-24T13:59:52.605Z,6.84
2023-02-24T14:02:18.063Z,6.47
2023-02-24T14:04:48.238Z,6.37
2023-02-24T14:07:12.368Z,6.39
2023-02-24T14:09:39.874Z,6.15
2023-02-24T14:12:07.262Z,5.86
2023-02-24T14:14:30.379Z,5.47
2023-02-24T14:16:51.984Z,5.45
2023-02-24T14:19:16.986Z,5.13
2023-02-24T14:21:38.441Z,5.09
2023-02-24T14:24:10.060Z,5.10
2023-02-24T14:26:41.574Z,5.13
2023-02-24T14:29:03.427Z,5.09
2023-02-24T14:31:26.016Z,4.97
2023-02-24T14:33:58.718Z,4.80
2023-02-24T14:36:24.992Z,4.74
2023-02-24T14:38:46.768Z,4.68
2023-02-24T14:41:20.233Z,4.66
2023-02-24T14:43:42.910Z,4.68
2023-02-24T14:46:06.124Z,4.71
2023-02-24T14:48:30.669Z,4.73
2023-02-24T14:50:55.890Z,4.74
2023-02-24T14:53:22.223Z,4.62
2023-02-24T14:55:48.615Z,4.64
2023-02-24T14:58:29.335Z,4.73
2023-02-24T15:00:56.383Z,4.69
2023-02-24T15:03:26.931Z,4.81
2023-02-24T15:05:55.444Z,4.89
2023-02-24T15:08:33.842Z,4.80
2023-02-24T15:10:55.871Z,4.75
2023-02-24T15:13:45.808Z,4.76
2023-02-24T15:16:29.483Z,4.92
2023-02-24T15:18:54.233Z,5.00
2023-02-24T15:21:23.343Z,5.21
2023-02-24T15:23:45.901Z,5.38
2023-02-24T15:26:08.794Z,5.40
2023-02-24T15:28:33.021Z,5.03
2023-02-24T15:31:02.471Z,4.87
2023-02-24T15:33:26.022Z,4.92
2023-02-24T15:35:50.693Z,4.93
2023-02-24T15:38:22.807Z,4.69
2023-02-24T15:40:52.121Z,4.40
2023-02-24T15:43:30.514Z,4.43
2023-02-24T15:45:52.012Z,4.39
2023-02-24T15:48:23.199Z,4.38
2023-02-24T15:50:44.717Z,4.34
2023-02-24T15:53:08.832Z,4.54
2023-02-24T15:55:30.411Z,4.40
2023-02-24T15:58:02.107Z,4.39
2023-02-24T16:00:23.918Z,4.42
2023-02-24T16:02:45.539Z,4.23
2023-02-24T16:05:09.369Z,4.13
2023-02-24T16:07:36.439Z,4.06
2023-02-24T16:10:00.643Z,3.93
2023-02-24T16:12:31.820Z,3.72
2023-02-24T16:15:02.264Z,3.66
2023-02-24T16:17:33.676Z,3.57
2023-02-24T16:19:56.894Z,3.40
2023-02-24T16:22:18.385Z,3.38
2023-02-24T16:24:39.947Z,3.27
2023-02-24T16:27:01.438Z,3.30
2023-02-24T16:29:22.946Z,3.31
2023-02-24T16:31:44.653Z,3.32
2023-02-24T16:34:07.243Z,3.32
2023-02-24T16:36:29.089Z,3.16
2023-02-24T16:38:51.742Z,3.03
2023-02-24T16:41:13.348Z,3.03
2023-02-24T16:43:37.606Z,3.09
2023-02-24T16:46:05.290Z,3.13
2023-02-24T16:48:27.498Z,3.12
2023-02-24T16:50:49.287Z,3.10
2023-02-24T16:53:16.923Z,3.04
2023-02-24T16:55:38.374Z,2.92
2023-02-24T16:58:00.341Z,2.98
2023-02-24T17:00:24.342Z,3.04
2023-02-24T17:02:46.059Z,3.01
2023-02-24T17:05:15.930Z,2.98
2023-02-24T17:07:39.343Z,2.83
2023-02-24T17:10:00.843Z,2.89
2023-02-24T17:12:22.323Z,2.72
2023-02-24T17:14:43.815Z,2.63
2023-02-24T17:17:05.307Z,2.60
2023-02-24T17:19:26.848Z,2.49
2023-02-24T17:21:48.349Z,2.51
2023-02-24T17:24:15.572Z,2.55
2023-02-24T17:26:37.052Z,2.56
2023-02-24T17:28:58.561Z,2.54
2023-02-24T17:31:20.093Z,2.56
2023-02-24T17:33:41.963Z,2.65
2023-02-24T17:36:03.592Z,2.62
2023-02-24T17:38:25.267Z,2.60
2023-02-24T17:40:47.227Z,2.63
2023-02-24T17:43:08.745Z,2.68
2023-02-24T17:45:30.196Z,2.64
2023-02-24T17:47:53.756Z,2.74
2023-02-24T17:50:15.281Z,2.68
2023-02-24T17:52:37.249Z,2.66
2023-02-24T17:54:59.519Z,2.68
2023-02-24T17:57:21.018Z,2.69
2023-02-24T17:59:45.771Z,2.72
2023-02-24T18:02:07.245Z,2.70
2023-02-24T18:04:29.560Z,2.64
2023-02-24T18:06:51.033Z,2.72
2023-02-24T18:09:12.656Z,2.68
2023-02-24T18:11:34.149Z,2.73
2023-02-24T18:14:00.362Z,2.71
2023-02-24T18:16:22.513Z,2.72
2023-02-24T18:18:44.371Z,2.67
2023-02-24T18:21:08.480Z,2.70
2023-02-24T18:23:30.117Z,2.74
2023-02-24T18:25:51.580Z,2.73
2023-02-24T18:28:13.065Z,2.76
2023-02-24T18:30:34.615Z,2.78
2023-02-24T18:32:56.297Z,2.81
2023-02-24T18:35:21.872Z,2.66
2023-02-24T18:37:43.629Z,2.67
2023-02-24T18:40:06.718Z,2.70
2023-02-24T18:42:28.194Z,2.76
2023-02-24T18:44:49.651Z,2.75
2023-02-24T18:47:11.113Z,2.70
2023-02-24T18:49:32.535Z,2.65
2023-02-24T18:51:54.094Z,2.76
2023-02-24T18:54:16.292Z,2.83
2023-02-24T18:56:37.764Z,2.81
2023-02-24T18:59:00.442Z,2.78
2023-02-24T19:01:25.382Z,2.85
2023-02-24T19:03:48.723Z,2.84
2023-02-24T19:06:11.920Z,2.98
2023-02-24T19:08:33.480Z,2.90
2023-02-24T19:10:54.951Z,3.03
2023-02-24T19:13:16.414Z,2.96
2023-02-24T19:15:39.042Z,2.96
2023-02-24T19:18:01.132Z,2.93
2023-02-24T19:20:22.584Z,2.91
2023-02-24T19:22:44.089Z,3.02
2023-02-24T19:25:05.728Z,2.92
2023-02-24T19:27:28.614Z,2.99
2023-02-24T19:29:50.391Z,3.01
2023-02-24T19:32:11.997Z,3.08
2023-02-24T19:34:33.647Z,3.13
2023-02-24T19:36:55.123Z,3.19
2023-02-24T19:39:17.570Z,3.15
2023-02-24T19:41:39.102Z,3.28
2023-02-24T19:44:01.063Z,3.25
2023-02-24T19:46:23.138Z,3.25
2023-02-24T19:48:45.991Z,3.36
2023-02-24T19:51:11.529Z,3.41
2023-02-24T19:53:32.966Z,3.27
2023-02-24T19:55:54.469Z,3.28
2023-02-24T19:58:16.082Z,3.32
2023-02-24T20:00:37.504Z,3.31
2023-02-24T20:02:58.994Z,3.31
2023-02-24T20:05:20.503Z,3.29
2023-02-24T20:07:43.398Z,3.21
2023-02-24T20:10:05.410Z,3.23
2023-02-24T20:12:27.094Z,3.26
2023-02-24T20:14:49.568Z,3.25
2023-02-24T20:17:11.017Z,3.33
2023-02-24T20:19:33.566Z,3.23
2023-02-24T20:21:55.077Z,3.29
2023-02-24T20:24:17.343Z,3.24
2023-02-24T20:26:41.948Z,3.24
2023-02-24T20:29:03.601Z,3.24
2023-02-24T20:31:25.405Z,3.30
2023-02-24T20:33:48.915Z,3.32
2023-02-24T20:36:14.014Z,3.29
2023-02-24T20:38:36.123Z,3.24
2023-02-24T20:41:00.235Z,3.28
2023-02-24T20:43:21.944Z,3.36
2023-02-24T20:45:43.422Z,3.31
2023-02-24T20:48:05.088Z,3.38
2023-02-24T20:50:28.548Z,3.42
2023-02-24T20:52:50.066Z,3.41
2023-02-24T20:55:11.512Z,3.32
2023-02-24T20:57:33.015Z,3.34
2023-02-24T21:00:03.548Z,3.32
2023-02-24T21:02:26.144Z,3.32
2023-02-24T21:04:47.641Z,3.24
2023-02-24T21:07:09.140Z,3.25
2023-02-24T21:09:37.067Z,3.16
2023-02-24T21:11:58.662Z,3.16
2023-02-24T21:14:22.031Z,3.16
2023-02-24T21:16:45.731Z,3.22
2023-02-24T21:19:07.243Z,3.19
2023-02-24T21:21:28.840Z,3.33
2023-02-24T21:23:51.240Z,3.34
2023-02-24T21:26:13.780Z,3.31
2023-02-24T21:28:35.972Z,3.37
2023-02-24T21:30:57.588Z,3.48
2023-02-24T21:33:19.526Z,3.40
2023-02-24T21:35:41.269Z,3.46
2023-02-24T21:38:02.750Z,3.46
2023-02-24T21:40:24.825Z,3.43
2023-02-24T21:42:47.636Z,3.49
2023-02-24T21:45:11.822Z,3.46
2023-02-24T21:47:33.318Z,3.51
2023-02-24T21:49:55.070Z,3.44
2023-02-24T21:52:16.563Z,3.42
2023-02-24T21:54:38.272Z,3.39
2023-02-24T21:56:59.925Z,3.45
2023-02-24T21:59:21.362Z,3.51
2023-02-24T22:01:44.807Z,3.53
2023-02-24T22:04:09.984Z,3.58
2023-02-24T22:06:33.805Z,3.61
2023-02-24T22:08:55.683Z,3.51
2023-02-24T22:11:18.765Z,3.64
2023-02-24T22:13:40.641Z,3.69
2023-02-24T22:16:05.687Z,3.57
2023-02-24T22:18:27.164Z,3.56
2023-02-24T22:20:48.597Z,3.57
2023-02-24T22:23:10.104Z,3.64
2023-02-24T22:25:31.595Z,3.52
2023-02-24T22:27:53.030Z,3.56
2023-02-24T22:30:15.344Z,3.49
2023-02-24T22:32:37.705Z,3.50
2023-02-24T22:34:59.171Z,3.51
2023-02-24T22:37:20.661Z,3.49
2023-02-24T22:39:42.281Z,3.44
2023-02-24T22:42:04.546Z,3.43
2023-02-24T22:44:26.085Z,3.40
2023-02-24T22:46:47.805Z,3.49
2023-02-24T22:49:10.265Z,3.47
2023-02-24T22:51:31.757Z,3.49
2023-02-24T22:53:54.050Z,3.50
2023-02-24T22:56:18.335Z,3.59
2023-02-24T22:58:40.497Z,3.54
2023-02-24T23:01:02.020Z,3.61
2023-02-24T23:03:28.781Z,3.62
2023-02-24T23:06:17.838Z,3.50
2023-02-24T23:08:40.686Z,3.49
2023-02-24T23:11:28.009Z,3.56
2023-02-24T23:13:50.539Z,3.52
2023-02-24T23:16:16.069Z,3.54
2023-02-24T23:18:37.811Z,3.57
2023-02-24T23:21:01.094Z,3.53
2023-02-24T23:23:23.499Z,3.46
2023-02-24T23:25:51.256Z,3.59
2023-02-24T23:28:12.814Z,3.57
2023-02-24T23:30:35.356Z,3.57
2023-02-24T23:32:57.355Z,3.61
2023-02-24T23:35:19.128Z,3.64
2023-02-24T23:37:41.131Z,3.74
2023-02-24T23:40:08.002Z,3.63
2023-02-24T23:42:29.451Z,3.59
2023-02-24T23:44:50.982Z,3.66
2023-02-24T23:47:13.214Z,3.55
2023-02-24T23:49:47.537Z,3.48
2023-02-24T23:52:11.489Z,3.45
2023-02-24T23:54:33.061Z,3.35
2023-02-24T23:56:54.763Z,3.38
2023-02-24T23:59:16.261Z,3.38
